sensor_id;sensor_type;location;lat;lon;timestamp;pressure;altitude;pressure_sealevel;temperature;humidity
21234;BME280;10774;42.178;26.578;2023-04-01T00:00:52;99324.63;;;11.21;100.00
21234;BME280;10774;42.178;26.578;2023-04-01T00:03:19;99320.16;;;10.73;100.00
21234;BME280;10774;42.178;26.578;2023-04-01T00:05:45;99307.31;;;10.66;100.00
21234;BME280;10774;42.178;26.578;2023-04-01T00:08:10;99311.38;;;10.71;100.00
21234;BME280;10774;42.178;26.578;2023-04-01T00:10:36;99317.50;;;10.85;100.00
21234;BME280;10774;42.178;26.578;2023-04-01T00:13:01;99315.72;;;10.96;100.00
21234;BME280;10774;42.178;26.578;2023-04-01T00:15:27;99308.34;;;11.11;100.00
21234;BME280;10774;42.178;26.578;2023-04-01T00:17:52;99311.16;;;11.10;100.00
21234;BME280;10774;42.178;26.578;2023-04-01T00:20:18;99302.88;;;11.13;100.00
21234;BME280;10774;42.178;26.578;2023-04-01T00:22:43;99289.81;;;11.19;99.58
21234;BME280;10774;42.178;26.578;2023-04-01T00:25:09;99300.31;;;11.22;99.39
21234;BME280;10774;42.178;26.578;2023-04-01T00:27:34;99298.28;;;11.37;97.80
21234;BME280;10774;42.178;26.578;2023-04-01T00:30:00;99295.16;;;11.08;98.37
21234;BME280;10774;42.178;26.578;2023-04-01T00:32:26;99290.72;;;10.96;99.52
21234;BME280;10774;42.178;26.578;2023-04-01T00:34:52;99278.00;;;10.87;99.74
21234;BME280;10774;42.178;26.578;2023-04-01T00:37:19;99290.91;;;10.82;99.11
21234;BME280;10774;42.178;26.578;2023-04-01T00:39:44;99294.63;;;10.68;100.00
21234;BME280;10774;42.178;26.578;2023-04-01T00:42:10;99287.44;;;10.68;100.00
21234;BME280;10774;42.178;26.578;2023-04-01T00:44:37;99281.72;;;10.73;99.89
21234;BME280;10774;42.178;26.578;2023-04-01T00:47:02;99273.50;;;10.63;99.82
21234;BME280;10774;42.178;26.578;2023-04-01T00:49:33;99279.09;;;10.60;99.34
21234;BME280;10774;42.178;26.578;2023-04-01T00:52:02;99273.28;;;10.66;99.00
21234;BME280;10774;42.178;26.578;2023-04-01T00:54:31;99263.75;;;10.62;99.33
21234;BME280;10774;42.178;26.578;2023-04-01T00:57:04;99258.53;;;10.48;99.47
21234;BME280;10774;42.178;26.578;2023-04-01T00:59:43;99263.00;;;10.60;99.56
21234;BME280;10774;42.178;26.578;2023-04-01T01:02:11;99199.03;;;10.06;100.00
21234;BME280;10774;42.178;26.578;2023-04-01T01:04:38;99228.19;;;10.24;100.00
21234;BME280;10774;42.178;26.578;2023-04-01T01:10:24;99257.69;;;10.24;100.00
21234;BME280;10774;42.178;26.578;2023-04-01T01:20:57;99250.91;;;9.68;100.00
21234;BME280;10774;42.178;26.578;2023-04-01T01:26:23;99230.09;;;9.85;100.00
21234;BME280;10774;42.178;26.578;2023-04-01T01:31:25;99220.31;;;9.47;100.00
21234;BME280;10774;42.178;26.578;2023-04-01T01:36:31;99197.38;;;9.43;100.00
21234;BME280;10774;42.178;26.578;2023-04-01T01:38:59;99229.34;;;9.83;100.00
21234;BME280;10774;42.178;26.578;2023-04-01T01:41:26;99228.31;;;9.73;100.00
21234;BME280;10774;42.178;26.578;2023-04-01T01:43:52;99233.34;;;9.64;100.00
21234;BME280;10774;42.178;26.578;2023-04-01T01:46:22;99225.00;;;9.43;100.00
21234;BME280;10774;42.178;26.578;2023-04-01T01:48:49;99219.25;;;9.50;100.00
21234;BME280;10774;42.178;26.578;2023-04-01T01:51:17;99235.94;;;9.53;100.00
21234;BME280;10774;42.178;26.578;2023-04-01T01:53:43;99229.50;;;9.43;100.00
21234;BME280;10774;42.178;26.578;2023-04-01T01:56:10;99233.16;;;9.42;100.00
21234;BME280;10774;42.178;26.578;2023-04-01T01:58:45;99225.66;;;9.47;100.00
21234;BME280;10774;42.178;26.578;2023-04-01T02:01:33;99228.03;;;9.26;100.00
21234;BME280;10774;42.178;26.578;2023-04-01T02:03:59;99224.78;;;8.83;100.00
21234;BME280;10774;42.178;26.578;2023-04-01T02:06:28;99224.72;;;9.10;100.00
21234;BME280;10774;42.178;26.578;2023-04-01T02:08:57;99226.72;;;9.06;100.00
21234;BME280;10774;42.178;26.578;2023-04-01T02:11:37;99198.16;;;9.20;100.00
21234;BME280;10774;42.178;26.578;2023-04-01T02:14:26;99204.56;;;9.55;100.00
21234;BME280;10774;42.178;26.578;2023-04-01T02:17:06;99216.66;;;9.48;100.00
21234;BME280;10774;42.178;26.578;2023-04-01T02:19:39;99196.75;;;9.27;100.00
21234;BME280;10774;42.178;26.578;2023-04-01T02:22:09;99202.34;;;9.24;100.00
21234;BME280;10774;42.178;26.578;2023-04-01T02:24:38;99228.78;;;9.03;100.00
21234;BME280;10774;42.178;26.578;2023-04-01T02:27:05;99223.09;;;8.95;100.00
21234;BME280;10774;42.178;26.578;2023-04-01T02:29:31;99203.63;;;8.40;100.00
21234;BME280;10774;42.178;26.578;2023-04-01T02:31:57;99217.72;;;8.42;100.00
21234;BME280;10774;42.178;26.578;2023-04-01T02:34:24;99213.38;;;8.54;100.00
21234;BME280;10774;42.178;26.578;2023-04-01T02:36:50;99206.56;;;8.62;100.00
21234;BME280;10774;42.178;26.578;2023-04-01T02:39:17;99220.28;;;8.71;100.00
21234;BME280;10774;42.178;26.578;2023-04-01T02:41:44;99210.25;;;8.87;100.00
21234;BME280;10774;42.178;26.578;2023-04-01T02:44:11;99231.66;;;8.87;100.00
21234;BME280;10774;42.178;26.578;2023-04-01T02:46:37;99245.47;;;8.81;100.00
21234;BME280;10774;42.178;26.578;2023-04-01T02:49:03;99225.22;;;8.89;100.00
21234;BME280;10774;42.178;26.578;2023-04-01T02:51:28;99215.16;;;8.93;100.00
21234;BME280;10774;42.178;26.578;2023-04-01T02:53:54;99210.25;;;8.87;100.00
21234;BME280;10774;42.178;26.578;2023-04-01T02:56:19;99209.34;;;8.74;100.00
21234;BME280;10774;42.178;26.578;2023-04-01T02:58:45;99216.34;;;8.89;100.00
21234;BME280;10774;42.178;26.578;2023-04-01T03:01:11;99213.88;;;9.11;100.00
21234;BME280;10774;42.178;26.578;2023-04-01T03:03:37;99201.34;;;8.99;100.00
21234;BME280;10774;42.178;26.578;2023-04-01T03:06:10;99183.28;;;9.03;100.00
21234;BME280;10774;42.178;26.578;2023-04-01T03:08:36;99187.31;;;9.21;100.00
21234;BME280;10774;42.178;26.578;2023-04-01T03:11:02;99171.91;;;9.12;100.00
21234;BME280;10774;42.178;26.578;2023-04-01T03:13:28;99178.78;;;9.29;100.00
21234;BME280;10774;42.178;26.578;2023-04-01T03:15:53;99188.06;;;9.36;100.00
21234;BME280;10774;42.178;26.578;2023-04-01T03:18:19;99155.84;;;9.25;100.00
21234;BME280;10774;42.178;26.578;2023-04-01T03:20:44;99174.94;;;9.07;100.00
21234;BME280;10774;42.178;26.578;2023-04-01T03:23:10;99160.78;;;9.05;100.00
21234;BME280;10774;42.178;26.578;2023-04-01T03:25:35;99181.97;;;9.34;100.00
21234;BME280;10774;42.178;26.578;2023-04-01T03:28:01;99185.19;;;9.26;100.00
21234;BME280;10774;42.178;26.578;2023-04-01T03:30:27;99173.81;;;9.23;100.00
21234;BME280;10774;42.178;26.578;2023-04-01T03:32:53;99146.09;;;9.24;100.00
21234;BME280;10774;42.178;26.578;2023-04-01T03:35:19;99169.84;;;9.41;100.00
21234;BME280;10774;42.178;26.578;2023-04-01T03:37:44;99174.25;;;9.29;100.00
21234;BME280;10774;42.178;26.578;2023-04-01T03:40:10;99150.94;;;9.19;100.00
21234;BME280;10774;42.178;26.578;2023-04-01T03:42:35;99145.38;;;9.09;100.00
21234;BME280;10774;42.178;26.578;2023-04-01T03:45:03;99163.16;;;8.97;100.00
21234;BME280;10774;42.178;26.578;2023-04-01T03:47:29;99159.56;;;9.22;100.00
21234;BME280;10774;42.178;26.578;2023-04-01T03:49:54;99151.44;;;9.36;100.00
21234;BME280;10774;42.178;26.578;2023-04-01T03:52:20;99157.13;;;9.06;100.00
21234;BME280;10774;42.178;26.578;2023-04-01T03:54:45;99161.28;;;8.20;100.00
21234;BME280;10774;42.178;26.578;2023-04-01T03:57:11;99183.63;;;7.36;100.00
21234;BME280;10774;42.178;26.578;2023-04-01T03:59:36;99181.13;;;7.62;100.00
21234;BME280;10774;42.178;26.578;2023-04-01T04:02:02;99169.50;;;7.48;100.00
21234;BME280;10774;42.178;26.578;2023-04-01T04:04:28;99172.31;;;8.01;100.00
21234;BME280;10774;42.178;26.578;2023-04-01T04:06:53;99145.38;;;7.91;100.00
21234;BME280;10774;42.178;26.578;2023-04-01T04:09:19;99163.50;;;8.40;100.00
21234;BME280;10774;42.178;26.578;2023-04-01T04:11:45;99146.38;;;8.43;100.00
21234;BME280;10774;42.178;26.578;2023-04-01T04:14:10;99150.69;;;8.45;100.00
21234;BME280;10774;42.178;26.578;2023-04-01T04:16:36;99172.53;;;8.64;100.00
21234;BME280;10774;42.178;26.578;2023-04-01T04:19:02;99170.53;;;8.81;100.00
21234;BME280;10774;42.178;26.578;2023-04-01T04:21:28;99151.97;;;8.52;100.00
21234;BME280;10774;42.178;26.578;2023-04-01T04:23:53;99183.22;;;8.64;100.00
21234;BME280;10774;42.178;26.578;2023-04-01T04:26:19;99172.75;;;8.61;100.00
21234;BME280;10774;42.178;26.578;2023-04-01T04:28:44;99144.69;;;8.42;100.00
21234;BME280;10774;42.178;26.578;2023-04-01T04:31:10;99165.28;;;8.92;100.00
21234;BME280;10774;42.178;26.578;2023-04-01T04:33:36;99160.56;;;8.96;100.00
21234;BME280;10774;42.178;26.578;2023-04-01T04:36:03;99119.69;;;8.81;100.00
21234;BME280;10774;42.178;26.578;2023-04-01T04:38:28;99117.94;;;9.05;100.00
21234;BME280;10774;42.178;26.578;2023-04-01T04:40:56;99139.53;;;9.28;100.00
21234;BME280;10774;42.178;26.578;2023-04-01T04:43:21;99137.31;;;9.34;100.00
21234;BME280;10774;42.178;26.578;2023-04-01T04:45:47;99143.16;;;9.52;100.00
21234;BME280;10774;42.178;26.578;2023-04-01T04:48:15;99139.69;;;9.63;100.00
21234;BME280;10774;42.178;26.578;2023-04-01T04:50:46;99128.50;;;9.69;100.00
21234;BME280;10774;42.178;26.578;2023-04-01T04:53:13;99149.91;;;9.45;100.00
21234;BME280;10774;42.178;26.578;2023-04-01T04:55:44;99153.03;;;9.26;100.00
21234;BME280;10774;42.178;26.578;2023-04-01T04:58:09;99164.75;;;8.87;100.00
21234;BME280;10774;42.178;26.578;2023-04-01T05:00:35;99146.44;;;8.94;100.00
21234;BME280;10774;42.178;26.578;2023-04-01T05:03:00;99123.31;;;9.05;100.00
21234;BME280;10774;42.178;26.578;2023-04-01T05:05:25;99156.28;;;9.68;100.00
21234;BME280;10774;42.178;26.578;2023-04-01T05:07:51;99146.44;;;9.92;100.00
21234;BME280;10774;42.178;26.578;2023-04-01T05:10:16;99140.59;;;9.51;100.00
21234;BME280;10774;42.178;26.578;2023-04-01T05:12:42;99135.28;;;9.99;100.00
21234;BME280;10774;42.178;26.578;2023-04-01T05:15:08;99141.22;;;10.39;100.00
21234;BME280;10774;42.178;26.578;2023-04-01T05:17:34;99131.53;;;10.60;100.00
21234;BME280;10774;42.178;26.578;2023-04-01T05:19:59;99119.56;;;10.76;100.00
21234;BME280;10774;42.178;26.578;2023-04-01T05:22:25;99122.72;;;10.23;100.00
21234;BME280;10774;42.178;26.578;2023-04-01T05:24:50;99122.34;;;9.56;100.00
21234;BME280;10774;42.178;26.578;2023-04-01T05:27:16;99133.00;;;9.81;100.00
21234;BME280;10774;42.178;26.578;2023-04-01T05:29:41;99111.25;;;9.36;100.00
21234;BME280;10774;42.178;26.578;2023-04-01T05:32:07;99116.69;;;8.98;100.00
21234;BME280;10774;42.178;26.578;2023-04-01T05:34:33;99125.63;;;9.35;100.00
21234;BME280;10774;42.178;26.578;2023-04-01T05:36:58;99122.53;;;9.65;100.00
21234;BME280;10774;42.178;26.578;2023-04-01T05:39:24;99126.25;;;10.00;100.00
21234;BME280;10774;42.178;26.578;2023-04-01T05:41:49;99114.97;;;10.07;100.00
21234;BME280;10774;42.178;26.578;2023-04-01T05:44:15;99131.59;;;10.47;100.00
21234;BME280;10774;42.178;26.578;2023-04-01T05:46:41;99132.97;;;10.76;100.00
21234;BME280;10774;42.178;26.578;2023-04-01T05:49:06;99120.47;;;10.41;100.00
21234;BME280;10774;42.178;26.578;2023-04-01T05:51:32;99106.56;;;10.36;100.00
21234;BME280;10774;42.178;26.578;2023-04-01T05:53:57;99087.78;;;10.36;100.00
21234;BME280;10774;42.178;26.578;2023-04-01T05:56:23;99121.00;;;10.57;100.00
21234;BME280;10774;42.178;26.578;2023-04-01T05:58:51;99121.31;;;10.99;100.00
21234;BME280;10774;42.178;26.578;2023-04-01T06:01:17;99127.63;;;11.76;100.00
21234;BME280;10774;42.178;26.578;2023-04-01T06:03:44;99106.50;;;12.15;100.00
21234;BME280;10774;42.178;26.578;2023-04-01T06:06:23;99087.75;;;12.46;100.00
21234;BME280;10774;42.178;26.578;2023-04-01T06:08:49;99102.66;;;12.50;100.00
21234;BME280;10774;42.178;26.578;2023-04-01T06:11:22;99094.25;;;12.64;100.00
21234;BME280;10774;42.178;26.578;2023-04-01T06:14:07;99095.69;;;12.89;100.00
21234;BME280;10774;42.178;26.578;2023-04-01T06:22:13;99068.00;;;13.08;100.00
21234;BME280;10774;42.178;26.578;2023-04-01T06:52:47;99112.50;;;14.89;100.00
21234;BME280;10774;42.178;26.578;2023-04-01T06:55:24;99076.88;;;14.67;100.00
21234;BME280;10774;42.178;26.578;2023-04-01T06:57:55;99100.28;;;14.85;100.00
21234;BME280;10774;42.178;26.578;2023-04-01T07:00:28;99107.56;;;15.22;100.00
21234;BME280;10774;42.178;26.578;2023-04-01T07:05:30;99086.91;;;15.58;100.00
21234;BME280;10774;42.178;26.578;2023-04-01T07:07:59;99093.56;;;15.91;100.00
21234;BME280;10774;42.178;26.578;2023-04-01T07:10:39;99082.38;;;16.04;99.76
21234;BME280;10774;42.178;26.578;2023-04-01T07:13:15;99079.63;;;15.68;100.00
21234;BME280;10774;42.178;26.578;2023-04-01T07:15:49;99088.06;;;15.83;100.00
21234;BME280;10774;42.178;26.578;2023-04-01T07:18:31;99076.63;;;15.89;100.00
21234;BME280;10774;42.178;26.578;2023-04-01T07:20:58;99082.78;;;15.82;100.00
21234;BME280;10774;42.178;26.578;2023-04-01T07:23:29;99072.06;;;15.62;100.00
21234;BME280;10774;42.178;26.578;2023-04-01T07:26:06;99051.09;;;15.47;100.00
21234;BME280;10774;42.178;26.578;2023-04-01T07:28:36;99048.47;;;15.55;100.00
21234;BME280;10774;42.178;26.578;2023-04-01T07:33:39;99063.53;;;15.67;100.00
21234;BME280;10774;42.178;26.578;2023-04-01T07:36:25;99049.88;;;15.59;100.00
21234;BME280;10774;42.178;26.578;2023-04-01T07:42:20;99042.84;;;15.93;100.00
21234;BME280;10774;42.178;26.578;2023-04-01T08:06:18;99021.22;;;16.37;100.00
21234;BME280;10774;42.178;26.578;2023-04-01T08:17:05;98993.72;;;17.52;92.83
21234;BME280;10774;42.178;26.578;2023-04-01T08:22:38;98987.94;;;17.47;89.98
21234;BME280;10774;42.178;26.578;2023-04-01T08:25:13;98997.81;;;17.65;91.74
21234;BME280;10774;42.178;26.578;2023-04-01T08:27:43;98994.03;;;17.49;90.88
21234;BME280;10774;42.178;26.578;2023-04-01T08:30:23;98964.81;;;17.27;91.45
21234;BME280;10774;42.178;26.578;2023-04-01T08:32:55;98962.13;;;17.27;92.03
21234;BME280;10774;42.178;26.578;2023-04-01T08:35:34;98969.34;;;17.18;92.59
21234;BME280;10774;42.178;26.578;2023-04-01T08:38:13;98959.41;;;17.27;91.63
21234;BME280;10774;42.178;26.578;2023-04-01T08:43:48;98951.84;;;17.63;89.19
21234;BME280;10774;42.178;26.578;2023-04-01T08:49:54;98943.09;;;17.77;84.95
21234;BME280;10774;42.178;26.578;2023-04-01T08:52:26;98926.28;;;17.74;85.10
21234;BME280;10774;42.178;26.578;2023-04-01T09:00:32;98924.06;;;18.02;86.33
21234;BME280;10774;42.178;26.578;2023-04-01T09:28:03;98880.34;;;19.77;69.07
21234;BME280;10774;42.178;26.578;2023-04-01T09:36:04;98878.94;;;19.35;72.86
21234;BME280;10774;42.178;26.578;2023-04-01T09:41:29;98874.78;;;19.93;65.77
21234;BME280;10774;42.178;26.578;2023-04-01T09:44:05;98858.72;;;19.98;62.65
21234;BME280;10774;42.178;26.578;2023-04-01T09:47:01;98867.06;;;19.97;63.01
21234;BME280;10774;42.178;26.578;2023-04-01T09:49:40;98856.19;;;19.97;62.86
21234;BME280;10774;42.178;26.578;2023-04-01T09:52:24;98860.59;;;19.83;61.58
21234;BME280;10774;42.178;26.578;2023-04-01T10:14:18;98820.66;;;21.30;56.47
21234;BME280;10774;42.178;26.578;2023-04-01T10:17:19;98809.28;;;21.26;56.68
21234;BME280;10774;42.178;26.578;2023-04-01T10:36:52;98766.66;;;21.47;55.37
21234;BME280;10774;42.178;26.578;2023-04-01T10:44:46;98750.91;;;21.77;54.01
21234;BME280;10774;42.178;26.578;2023-04-01T10:47:49;98734.47;;;21.63;53.09
21234;BME280;10774;42.178;26.578;2023-04-01T11:10:18;98734.53;;;20.84;56.28
21234;BME280;10774;42.178;26.578;2023-04-01T11:22:29;98707.28;;;20.48;55.37
21234;BME280;10774;42.178;26.578;2023-04-01T11:27:39;98684.66;;;20.33;54.74
21234;BME280;10774;42.178;26.578;2023-04-01T11:36:27;98685.13;;;20.22;52.17
21234;BME280;10774;42.178;26.578;2023-04-01T11:39:01;98688.78;;;20.29;51.66
21234;BME280;10774;42.178;26.578;2023-04-01T11:41:38;98694.63;;;20.26;51.58
21234;BME280;10774;42.178;26.578;2023-04-01T11:44:19;98679.53;;;20.45;51.58
21234;BME280;10774;42.178;26.578;2023-04-01T12:06:50;98660.56;;;19.85;59.79
21234;BME280;10774;42.178;26.578;2023-04-01T12:34:50;98613.09;;;19.06;68.46
21234;BME280;10774;42.178;26.578;2023-04-01T12:37:37;98603.59;;;18.87;67.51
21234;BME280;10774;42.178;26.578;2023-04-01T12:40:37;98600.72;;;18.89;68.35
21234;BME280;10774;42.178;26.578;2023-04-01T12:46:18;98596.69;;;18.99;64.78
21234;BME280;10774;42.178;26.578;2023-04-01T12:49:16;98576.97;;;18.97;63.84
21234;BME280;10774;42.178;26.578;2023-04-01T12:52:01;98587.34;;;19.17;63.30
21234;BME280;10774;42.178;26.578;2023-04-01T13:28:29;98524.88;;;19.89;58.74
21234;BME280;10774;42.178;26.578;2023-04-01T13:31:02;98516.66;;;20.68;56.21
21234;BME280;10774;42.178;26.578;2023-04-01T13:39:04;98517.03;;;22.10;51.77
21234;BME280;10774;42.178;26.578;2023-04-01T13:44:22;98507.38;;;22.81;50.35
21234;BME280;10774;42.178;26.578;2023-04-01T13:52:20;98490.56;;;22.37;50.80
21234;BME280;10774;42.178;26.578;2023-04-01T13:55:51;98491.00;;;22.94;49.71
21234;BME280;10774;42.178;26.578;2023-04-01T14:01:20;98449.44;;;21.71;52.10
21234;BME280;10774;42.178;26.578;2023-04-01T14:06:37;98448.47;;;22.05;49.41
21234;BME280;10774;42.178;26.578;2023-04-01T14:09:16;98430.41;;;22.24;48.34
21234;BME280;10774;42.178;26.578;2023-04-01T14:11:56;98440.50;;;22.50;47.75
21234;BME280;10774;42.178;26.578;2023-04-01T14:16:55;98424.44;;;22.87;46.87
21234;BME280;10774;42.178;26.578;2023-04-01T14:31:17;98393.63;;;23.25;45.57
21234;BME280;10774;42.178;26.578;2023-04-01T14:33:57;98394.41;;;23.38;45.32
21234;BME280;10774;42.178;26.578;2023-04-01T14:47:48;98395.06;;;23.72;43.46
21234;BME280;10774;42.178;26.578;2023-04-01T14:50:18;98387.97;;;23.64;43.04
21234;BME280;10774;42.178;26.578;2023-04-01T14:53:16;98392.84;;;23.94;42.54
21234;BME280;10774;42.178;26.578;2023-04-01T14:55:57;98382.66;;;24.01;42.54
21234;BME280;10774;42.178;26.578;2023-04-01T14:58:44;98378.47;;;23.67;43.06
21234;BME280;10774;42.178;26.578;2023-04-01T15:01:23;98379.31;;;23.22;44.10
21234;BME280;10774;42.178;26.578;2023-04-01T15:11:44;98399.09;;;22.33;47.01
21234;BME280;10774;42.178;26.578;2023-04-01T15:25:25;98442.72;;;20.07;51.68
21234;BME280;10774;42.178;26.578;2023-04-01T15:28:10;98454.13;;;20.17;50.85
21234;BME280;10774;42.178;26.578;2023-04-01T15:30:53;98449.09;;;20.63;47.54
21234;BME280;10774;42.178;26.578;2023-04-01T15:33:43;98442.75;;;20.56;47.03
21234;BME280;10774;42.178;26.578;2023-04-01T15:36:28;98471.97;;;19.98;48.35
21234;BME280;10774;42.178;26.578;2023-04-01T15:44:43;98464.94;;;19.02;50.78
21234;BME280;10774;42.178;26.578;2023-04-01T15:50:05;98459.97;;;18.76;51.94
21234;BME280;10774;42.178;26.578;2023-04-01T15:55:19;98485.19;;;18.70;52.44
21234;BME280;10774;42.178;26.578;2023-04-01T16:03:37;98499.38;;;18.57;53.69
21234;BME280;10774;42.178;26.578;2023-04-01T16:23:14;98561.34;;;18.16;60.55
21234;BME280;10774;42.178;26.578;2023-04-01T16:34:36;98542.94;;;17.72;60.70
21234;BME280;10774;42.178;26.578;2023-04-01T16:37:12;98559.84;;;17.82;61.25
21234;BME280;10774;42.178;26.578;2023-04-01T16:39:48;98566.66;;;17.70;61.68
21234;BME280;10774;42.178;26.578;2023-04-01T16:43:04;98583.66;;;17.64;61.55
21234;BME280;10774;42.178;26.578;2023-04-01T16:45:53;98586.75;;;17.52;62.71
21234;BME280;10774;42.178;26.578;2023-04-01T16:48:28;98590.06;;;17.32;65.92
21234;BME280;10774;42.178;26.578;2023-04-01T16:51:00;98571.97;;;17.08;69.41
21234;BME280;10774;42.178;26.578;2023-04-01T16:53:40;98581.00;;;16.84;72.31
21234;BME280;10774;42.178;26.578;2023-04-01T16:56:21;98597.44;;;16.74;77.59
21234;BME280;10774;42.178;26.578;2023-04-01T17:12:47;98675.88;;;15.75;100.00
21234;BME280;10774;42.178;26.578;2023-04-01T17:18:23;98626.13;;;15.33;100.00
21234;BME280;10774;42.178;26.578;2023-04-01T17:20:58;98654.44;;;15.21;100.00
21234;BME280;10774;42.178;26.578;2023-04-01T17:23:41;98675.47;;;15.09;100.00
21234;BME280;10774;42.178;26.578;2023-04-01T17:34:15;98690.09;;;14.99;100.00
21234;BME280;10774;42.178;26.578;2023-04-01T17:39:49;98707.78;;;14.93;100.00
21234;BME280;10774;42.178;26.578;2023-04-01T17:42:27;98704.25;;;14.93;100.00
21234;BME280;10774;42.178;26.578;2023-04-01T17:50:23;98706.47;;;14.79;100.00
21234;BME280;10774;42.178;26.578;2023-04-01T17:55:44;98694.59;;;14.72;100.00
21234;BME280;10774;42.178;26.578;2023-04-01T18:01:08;98722.22;;;14.84;100.00
21234;BME280;10774;42.178;26.578;2023-04-01T18:13:09;98783.34;;;14.67;100.00
21234;BME280;10774;42.178;26.578;2023-04-01T18:15:46;98784.25;;;14.58;100.00
21234;BME280;10774;42.178;26.578;2023-04-01T18:21:05;98786.66;;;14.61;100.00
21234;BME280;10774;42.178;26.578;2023-04-01T18:23:39;98781.16;;;14.53;100.00
21234;BME280;10774;42.178;26.578;2023-04-01T18:26:13;98789.81;;;14.74;100.00
21234;BME280;10774;42.178;26.578;2023-04-01T18:28:56;98758.56;;;14.72;100.00
21234;BME280;10774;42.178;26.578;2023-04-01T18:31:26;98765.75;;;14.63;100.00
21234;BME280;10774;42.178;26.578;2023-04-01T18:36:51;98725.53;;;14.60;100.00
21234;BME280;10774;42.178;26.578;2023-04-01T18:39:22;98737.13;;;14.43;100.00
21234;BME280;10774;42.178;26.578;2023-04-01T18:42:03;98739.66;;;14.44;100.00
21234;BME280;10774;42.178;26.578;2023-04-01T18:47:36;98720.34;;;14.21;100.00
21234;BME280;10774;42.178;26.578;2023-04-01T18:52:53;98722.34;;;13.92;100.00
21234;BME280;10774;42.178;26.578;2023-04-01T18:58:06;98725.19;;;13.90;100.00
21234;BME280;10774;42.178;26.578;2023-04-01T19:00:42;98718.47;;;13.76;100.00
21234;BME280;10774;42.178;26.578;2023-04-01T19:03:38;98739.97;;;13.86;100.00
21234;BME280;10774;42.178;26.578;2023-04-01T19:08:51;98751.06;;;13.93;100.00
21234;BME280;10774;42.178;26.578;2023-04-01T19:17:10;98778.25;;;14.09;100.00
21234;BME280;10774;42.178;26.578;2023-04-01T19:25:38;98768.94;;;13.94;100.00
21234;BME280;10774;42.178;26.578;2023-04-01T19:30:51;98783.19;;;13.76;100.00
21234;BME280;10774;42.178;26.578;2023-04-01T19:41:39;98789.53;;;13.85;100.00
21234;BME280;10774;42.178;26.578;2023-04-01T19:47:39;98787.50;;;13.97;100.00
21234;BME280;10774;42.178;26.578;2023-04-01T19:52:58;98786.78;;;14.04;100.00
21234;BME280;10774;42.178;26.578;2023-04-01T20:00:53;98774.22;;;14.13;100.00
21234;BME280;10774;42.178;26.578;2023-04-01T20:03:34;98788.84;;;14.20;100.00
21234;BME280;10774;42.178;26.578;2023-04-01T20:14:32;98803.41;;;14.27;100.00
21234;BME280;10774;42.178;26.578;2023-04-01T20:17:11;98806.13;;;14.27;100.00
21234;BME280;10774;42.178;26.578;2023-04-01T20:19:44;98812.81;;;14.23;100.00
21234;BME280;10774;42.178;26.578;2023-04-01T20:25:00;98805.66;;;14.04;100.00
21234;BME280;10774;42.178;26.578;2023-04-01T20:27:39;98814.00;;;14.11;100.00
21234;BME280;10774;42.178;26.578;2023-04-01T20:30:47;98814.03;;;14.01;100.00
21234;BME280;10774;42.178;26.578;2023-04-01T20:36:30;98793.81;;;13.88;100.00
21234;BME280;10774;42.178;26.578;2023-04-01T20:41:38;98805.03;;;13.73;100.00
21234;BME280;10774;42.178;26.578;2023-04-01T20:44:27;98805.22;;;13.72;100.00
21234;BME280;10774;42.178;26.578;2023-04-01T20:49:56;98806.06;;;13.63;100.00
21234;BME280;10774;42.178;26.578;2023-04-01T20:52:36;98797.16;;;13.43;100.00
21234;BME280;10774;42.178;26.578;2023-04-01T21:09:02;98827.53;;;13.35;100.00
21234;BME280;10774;42.178;26.578;2023-04-01T21:11:37;98824.41;;;13.40;100.00
21234;BME280;10774;42.178;26.578;2023-04-01T21:17:14;98842.97;;;13.33;100.00
21234;BME280;10774;42.178;26.578;2023-04-01T21:46:00;98879.72;;;11.94;100.00
21234;BME280;10774;42.178;26.578;2023-04-01T21:48:39;98886.38;;;11.78;100.00
21234;BME280;10774;42.178;26.578;2023-04-01T22:05:43;98872.16;;;11.46;100.00
21234;BME280;10774;42.178;26.578;2023-04-01T22:11:45;98891.66;;;11.48;100.00
21234;BME280;10774;42.178;26.578;2023-04-01T22:14:32;98901.28;;;11.62;100.00
21234;BME280;10774;42.178;26.578;2023-04-01T22:17:00;98908.94;;;11.66;100.00
21234;BME280;10774;42.178;26.578;2023-04-01T22:22:23;98918.81;;;11.45;100.00
21234;BME280;10774;42.178;26.578;2023-04-01T22:25:11;98914.91;;;11.38;100.00
21234;BME280;10774;42.178;26.578;2023-04-01T22:27:46;98922.03;;;11.27;100.00
21234;BME280;10774;42.178;26.578;2023-04-01T22:30:28;98890.09;;;11.24;100.00
21234;BME280;10774;42.178;26.578;2023-04-01T22:33:07;98910.66;;;11.35;100.00
21234;BME280;10774;42.178;26.578;2023-04-01T22:43:56;98928.53;;;11.25;100.00
21234;BME280;10774;42.178;26.578;2023-04-01T22:52:00;98897.81;;;11.07;100.00
21234;BME280;10774;42.178;26.578;2023-04-01T22:54:39;98895.25;;;11.05;100.00
21234;BME280;10774;42.178;26.578;2023-04-01T22:57:31;98914.66;;;11.09;100.00
21234;BME280;10774;42.178;26.578;2023-04-01T23:00:13;98927.13;;;11.10;100.00
21234;BME280;10774;42.178;26.578;2023-04-01T23:02:43;98932.16;;;10.92;100.00
21234;BME280;10774;42.178;26.578;2023-04-01T23:05:14;98925.47;;;10.86;100.00
21234;BME280;10774;42.178;26.578;2023-04-01T23:13:20;98931.84;;;10.63;100.00
21234;BME280;10774;42.178;26.578;2023-04-01T23:15:47;98941.84;;;10.72;100.00
21234;BME280;10774;42.178;26.578;2023-04-01T23:19:10;98948.78;;;10.63;100.00
21234;BME280;10774;42.178;26.578;2023-04-01T23:21:35;98927.19;;;10.54;100.00
21234;BME280;10774;42.178;26.578;2023-04-01T23:24:40;98953.66;;;10.58;100.00